Time;durP1;ratioP1;P1;durP2;ratioP2;P2;SDS_P1;SDS_P2;PMS_P1;PMS_P2;Temp;Humidity;BMP_temperature;BMP_pressure;BME280_temperature;BME280_humidity;BME280_pressure;Samples;Min_cycle;Max_cycle;Signal;HPM_P1;HPM_P2
2023/01/18 00:01:08;;;;;;;1.47;1.37;;;-0.50;97.30;;;;;;4957864;28;20432;-85
2023/01/18 00:03:35;;;;;;;2.80;2.60;;;-0.50;97.30;;;;;;4957957;28;20594;-85
2023/01/18 00:06:05;;;;;;;2.57;2.37;;;-0.60;97.30;;;;;;4975331;28;20421;-84
2023/01/18 00:08:33;;;;;;;1.77;1.67;;;-0.60;97.30;;;;;;4974514;28;20436;-85
2023/01/18 00:11:03;;;;;;;2.83;1.83;;;-0.60;97.30;;;;;;4973617;28;20449;-85
2023/01/18 00:13:29;;;;;;;1.77;1.67;;;-0.60;97.30;;;;;;4956080;28;20453;-85
2023/01/18 00:16:04;;;;;;;1.93;1.80;;;-0.50;97.30;;;;;;4955237;28;20466;-85
2023/01/18 00:18:30;;;;;;;3.00;2.43;;;-0.50;97.30;;;;;;4973289;28;20254;-85
2023/01/18 00:21:00;;;;;;;1.97;1.87;;;-0.40;97.30;;;;;;4955332;28;20515;-86
2023/01/18 00:23:25;;;;;;;2.80;2.60;;;-0.40;97.30;;;;;;4955222;28;20529;-85
2023/01/18 00:25:51;;;;;;;2.30;2.10;;;-0.40;97.30;;;;;;4958781;28;20514;-85
2023/01/18 00:28:21;;;;;;;1.70;1.60;;;-0.30;97.30;;;;;;4966271;28;20205;-85
2023/01/18 00:30:47;;;;;;;3.47;3.30;;;-0.30;97.30;;;;;;4955994;28;20182;-85
2023/01/18 00:33:12;;;;;;;1.90;1.83;;;-0.20;97.30;;;;;;4955853;28;20436;-85
2023/01/18 00:35:38;;;;;;;2.40;2.30;;;-0.20;97.30;;;;;;4953156;29;20748;-86
2023/01/18 00:38:03;;;;;;;2.07;1.93;;;-0.20;97.30;;;;;;4936835;29;20274;-86
2023/01/18 00:40:29;;;;;;;1.90;1.80;;;-0.10;97.30;;;;;;4936533;29;20175;-85
2023/01/18 00:45:39;;;;;;;1.80;1.70;;;-0.10;97.30;;;;;;4952633;29;20226;-86
2023/01/18 00:48:05;;;;;;;1.67;1.57;;;0.00;97.30;;;;;;4943241;28;20524;-85
2023/01/18 00:50:31;;;;;;;1.93;1.83;;;0.00;97.30;;;;;;4958284;28;20525;-85
2023/01/18 00:52:58;;;;;;;2.53;2.33;;;0.00;97.30;;;;;;4946892;29;20199;-85
2023/01/18 00:55:24;;;;;;;1.40;1.30;;;0.00;97.30;;;;;;4969441;28;20210;-86
2023/01/18 00:57:50;;;;;;;1.50;1.40;;;0.10;97.30;;;;;;4971267;28;20414;-85
2023/01/18 01:00:22;;;;;;;1.50;1.40;;;0.10;97.30;;;;;;4971480;28;20444;-86
2023/01/18 01:02:50;;;;;;;4.27;2.17;;;0.10;97.30;;;;;;4944119;28;20202;-85
2023/01/18 01:08:06;;;;;;;1.97;1.87;;;0.20;97.30;;;;;;4968280;28;20425;-85
2023/01/18 01:10:33;;;;;;;3.73;3.53;;;0.20;97.30;;;;;;4971415;28;20442;-86
2023/01/18 01:26:40;;;;;;;2.53;2.33;;;0.20;97.30;;;;;;4972798;28;20553;-85
2023/01/18 01:29:05;;;;;;;2.23;2.03;;;0.30;97.30;;;;;;4973548;28;20509;-85
2023/01/18 01:31:31;;;;;;;2.73;2.03;;;0.30;97.30;;;;;;4972100;28;20718;-86
2023/01/18 01:33:56;;;;;;;3.93;3.70;;;0.30;97.30;;;;;;4962811;28;20260;-85
2023/01/18 01:36:24;;;;;;;3.23;3.03;;;0.30;97.30;;;;;;4975645;28;20664;-87
2023/01/18 01:38:50;;;;;;;1.70;1.60;;;0.30;97.30;;;;;;5000058;28;20171;-86
2023/01/18 01:41:25;;;;;;;10.53;2.97;;;0.30;97.30;;;;;;4987480;28;20983;-86
2023/01/18 01:43:56;;;;;;;1.70;1.40;;;0.30;97.30;;;;;;4997811;28;20184;-85
2023/01/18 01:46:28;;;;;;;3.50;1.93;;;0.30;97.30;;;;;;4983617;28;20511;-85
2023/01/18 01:49:02;;;;;;;1.93;1.83;;;0.30;97.30;;;;;;4983029;28;20413;-85
2023/01/18 01:51:28;;;;;;;1.90;1.80;;;0.40;97.30;;;;;;4972074;28;20456;-85
2023/01/18 01:53:58;;;;;;;1.53;1.50;;;0.40;97.30;;;;;;4973641;28;20433;-85
2023/01/18 01:56:24;;;;;;;1.47;1.37;;;0.40;97.30;;;;;;5004404;28;20196;-85
2023/01/18 01:58:54;;;;;;;1.37;1.27;;;0.40;97.30;;;;;;4993282;28;20422;-84
2023/01/18 02:01:20;;;;;;;1.40;1.30;;;0.40;97.30;;;;;;5001236;28;20162;-85
2023/01/18 02:03:45;;;;;;;2.50;2.30;;;0.50;97.30;;;;;;4974000;28;20933;-85
2023/01/18 02:06:39;;;;;;;3.17;2.97;;;0.50;97.30;;;;;;4969964;28;20711;-85
2023/01/18 02:09:12;;;;;;;1.70;1.60;;;0.50;97.30;;;;;;4987607;28;20182;-85
2023/01/18 02:11:39;;;;;;;3.27;3.10;;;0.50;97.30;;;;;;4973719;28;20531;-86
2023/01/18 02:14:11;;;;;;;3.63;2.50;;;0.50;97.30;;;;;;4972770;28;20962;-86
2023/01/18 02:17:04;;;;;;;3.57;2.30;;;0.60;97.30;;;;;;4970609;28;20446;-85
2023/01/18 02:19:51;;;;;;;1.97;1.87;;;0.60;97.30;;;;;;4967616;28;20501;-85
2023/01/18 02:22:48;;;;;;;1.50;1.40;;;0.60;97.30;;;;;;4973801;28;20464;-85
2023/01/18 02:25:27;;;;;;;1.70;1.60;;;0.60;97.30;;;;;;4972992;28;20951;-85
2023/01/18 02:28:22;;;;;;;1.50;1.40;;;0.60;97.30;;;;;;4973987;28;20421;-85
2023/01/18 02:31:04;;;;;;;2.00;1.90;;;0.60;97.30;;;;;;4973704;28;20421;-85
2023/01/18 02:33:38;;;;;;;4.50;2.53;;;0.70;97.30;;;;;;4973646;28;20413;-85
2023/01/18 02:36:05;;;;;;;1.30;1.20;;;0.70;97.30;;;;;;4963906;28;20465;-86
2023/01/18 02:38:40;;;;;;;1.77;1.67;;;0.70;97.30;;;;;;4970796;28;20414;-85
2023/01/18 02:41:20;;;;;;;2.63;1.93;;;0.70;97.30;;;;;;4970810;28;20852;-85
2023/01/18 02:46:29;;;;;;;1.50;1.40;;;0.70;97.30;;;;;;5001138;28;20468;-90
2023/01/18 02:48:56;;;;;;;2.23;1.87;;;0.70;97.30;;;;;;5009531;28;20420;-89
2023/01/18 02:51:23;;;;;;;2.60;2.27;;;0.80;97.30;;;;;;4994808;28;20499;-90
2023/01/18 02:53:48;;;;;;;2.07;1.93;;;0.80;97.30;;;;;;5012565;28;20444;-90
2023/01/18 02:56:24;;;;;;;9.60;2.00;;;0.80;97.30;;;;;;4996214;28;20526;-90
2023/01/18 02:59:35;;;;;;;2.13;1.60;;;0.80;97.30;;;;;;5010955;28;20184;-89
2023/01/18 03:02:03;;;;;;;2.33;2.13;;;0.80;97.30;;;;;;4987726;28;20420;-89
2023/01/18 03:04:41;;;;;;;1.20;1.10;;;0.90;97.30;;;;;;5012306;28;20519;-90
2023/01/18 03:07:16;;;;;;;1.20;1.10;;;0.90;97.30;;;;;;5012076;28;20462;-90
2023/01/18 03:09:43;;;;;;;3.70;2.40;;;0.90;97.30;;;;;;5009981;28;20849;-90
2023/01/18 03:12:44;;;;;;;1.80;1.70;;;0.90;97.30;;;;;;4975439;28;20785;-90
2023/01/18 03:15:19;;;;;;;1.50;1.40;;;0.90;97.30;;;;;;4975337;28;20456;-89
2023/01/18 03:17:49;;;;;;;1.10;1.00;;;0.90;97.30;;;;;;4975864;28;20865;-90
2023/01/18 03:20:24;;;;;;;2.27;2.07;;;1.00;97.30;;;;;;4976198;28;20421;-89
2023/01/18 03:25:44;;;;;;;2.00;1.83;;;1.00;97.30;;;;;;4993832;28;20416;-89
2023/01/18 03:34:24;;;;;;;1.50;1.40;;;1.00;97.30;;;;;;4993450;28;20431;-89
2023/01/18 03:36:52;;;;;;;1.33;1.23;;;1.00;97.30;;;;;;4975652;28;20496;-90
2023/01/18 03:39:23;;;;;;;1.60;1.50;;;1.00;97.30;;;;;;4992230;28;20417;-91
2023/01/18 03:41:53;;;;;;;1.60;1.40;;;1.10;97.30;;;;;;4975392;28;20793;-90
2023/01/18 03:44:30;;;;;;;3.93;1.60;;;1.10;97.30;;;;;;4971319;28;20468;-90
2023/01/18 03:46:56;;;;;;;1.53;1.43;;;1.10;97.30;;;;;;4971704;28;20434;-90
2023/01/18 03:49:22;;;;;;;2.27;2.07;;;1.10;97.30;;;;;;4955211;28;20419;-90
2023/01/18 03:52:23;;;;;;;2.30;2.13;;;1.10;97.30;;;;;;4967066;28;20874;-90
2023/01/18 03:55:19;;;;;;;1.20;1.10;;;1.10;97.30;;;;;;4922516;29;20904;-90
2023/01/18 03:58:14;;;;;;;2.90;2.70;;;1.20;97.30;;;;;;4974304;28;20941;-89
2023/01/18 04:00:40;;;;;;;1.60;1.47;;;1.20;97.30;;;;;;4988153;28;20437;-90
2023/01/18 04:03:06;;;;;;;1.60;1.50;;;1.20;97.30;;;;;;4988192;28;20437;-90
2023/01/18 04:05:32;;;;;;;1.30;1.20;;;1.20;97.30;;;;;;4989667;28;20913;-90
2023/01/18 04:07:58;;;;;;;2.50;2.30;;;1.20;97.30;;;;;;4989620;28;20178;-90
2023/01/18 04:10:24;;;;;;;2.03;1.13;;;1.20;97.30;;;;;;4989629;28;20437;-90
2023/01/18 04:12:50;;;;;;;2.37;2.13;;;1.20;97.30;;;;;;4990637;28;20233;-90
2023/01/18 04:15:15;;;;;;;1.10;1.00;;;1.20;97.30;;;;;;4989772;28;20449;-90
2023/01/18 04:17:41;;;;;;;1.57;1.37;;;1.20;97.30;;;;;;4990634;28;20230;-90
2023/01/18 04:20:10;;;;;;;1.10;1.00;;;1.20;97.30;;;;;;4990019;28;20671;-91
2023/01/18 04:22:39;;;;;;;3.27;2.53;;;1.20;97.30;;;;;;4989636;28;20766;-90
2023/01/18 04:25:04;;;;;;;5.80;2.07;;;1.20;97.30;;;;;;4990038;28;20417;-90
2023/01/18 04:27:33;;;;;;;1.20;1.10;;;1.20;97.30;;;;;;4988713;28;20422;-91
2023/01/18 04:29:59;;;;;;;1.50;1.40;;;1.20;97.30;;;;;;4987447;28;20237;-91
2023/01/18 04:32:24;;;;;;;1.20;1.10;;;1.20;97.30;;;;;;4988441;28;20453;-90
2023/01/18 04:34:57;;;;;;;1.97;1.77;;;1.20;97.30;;;;;;4988392;28;20777;-90
2023/01/18 04:37:29;;;;;;;1.60;1.50;;;1.20;97.30;;;;;;4972109;28;20457;-90
2023/01/18 04:39:57;;;;;;;2.10;1.93;;;1.30;97.30;;;;;;4972417;28;20806;-89
2023/01/18 04:42:24;;;;;;;1.37;1.27;;;1.30;97.30;;;;;;4971046;28;20944;-90
2023/01/18 04:44:53;;;;;;;1.20;1.10;;;1.30;97.30;;;;;;4974948;28;20457;-90
2023/01/18 04:47:18;;;;;;;1.10;1.00;;;1.30;97.30;;;;;;4975572;28;20458;-90
2023/01/18 04:49:44;;;;;;;1.80;1.70;;;1.30;97.30;;;;;;4975310;28;20445;-90
2023/01/18 04:52:09;;;;;;;1.60;1.27;;;1.40;97.30;;;;;;4975173;28;20205;-91
2023/01/18 04:54:35;;;;;;;1.20;1.10;;;1.40;97.30;;;;;;4992985;28;20192;-90
2023/01/18 04:57:01;;;;;;;1.63;1.20;;;1.40;97.30;;;;;;4974980;28;20210;-91
2023/01/18 04:59:27;;;;;;;1.33;1.23;;;1.40;97.30;;;;;;4975202;28;20276;-90
2023/01/18 05:01:53;;;;;;;1.23;1.13;;;1.40;97.30;;;;;;4974310;28;20181;-90
2023/01/18 05:04:21;;;;;;;1.53;1.43;;;1.40;97.30;;;;;;4992073;28;20413;-90
2023/01/18 05:06:47;;;;;;;1.80;1.70;;;1.40;97.30;;;;;;4974935;28;20188;-90
2023/01/18 05:09:13;;;;;;;1.37;1.27;;;1.40;97.30;;;;;;4974998;28;20409;-90
2023/01/18 05:11:40;;;;;;;1.10;1.00;;;1.30;97.30;;;;;;4974303;28;20476;-91
2023/01/18 05:14:05;;;;;;;2.17;2.00;;;1.30;97.30;;;;;;4973442;28;20205;-91
2023/01/18 05:16:31;;;;;;;3.87;2.37;;;1.30;97.30;;;;;;4992378;28;20472;-90
2023/01/18 05:18:56;;;;;;;1.20;1.10;;;1.30;97.30;;;;;;4974569;28;20185;-90
2023/01/18 05:21:22;;;;;;;1.17;1.07;;;1.30;97.30;;;;;;4990156;28;20637;-91
2023/01/18 05:23:47;;;;;;;1.00;0.90;;;1.30;97.30;;;;;;4989403;28;20203;-91
2023/01/18 05:26:17;;;;;;;1.57;1.47;;;1.30;97.30;;;;;;4989158;28;20220;-90
2023/01/18 05:28:44;;;;;;;1.17;1.07;;;1.40;97.30;;;;;;4989431;28;20417;-90
2023/01/18 05:31:09;;;;;;;1.47;1.30;;;1.40;97.30;;;;;;4990163;28;20472;-90
2023/01/18 05:33:35;;;;;;;3.67;1.87;;;1.40;97.30;;;;;;4988325;28;20444;-92
2023/01/18 05:36:01;;;;;;;2.30;1.63;;;1.30;97.30;;;;;;4989393;28;20687;-90
2023/01/18 05:38:26;;;;;;;5.23;2.47;;;1.30;97.30;;;;;;4973288;28;20228;-91
2023/01/18 05:40:53;;;;;;;1.53;1.47;;;1.30;97.30;;;;;;4978066;28;20186;-91
2023/01/18 05:43:20;;;;;;;1.10;1.00;;;1.30;97.30;;;;;;4978811;28;20215;-92
2023/01/18 05:45:46;;;;;;;2.23;2.03;;;1.30;97.30;;;;;;4976872;28;20465;-90
2023/01/18 05:48:12;;;;;;;1.40;1.30;;;1.30;97.30;;;;;;4983161;28;20962;-90
2023/01/18 05:50:39;;;;;;;1.30;1.20;;;1.20;97.30;;;;;;4990019;28;20187;-91
2023/01/18 05:53:05;;;;;;;1.10;1.00;;;1.20;97.30;;;;;;4989528;28;20209;-91
2023/01/18 05:55:30;;;;;;;1.80;1.70;;;1.20;97.30;;;;;;4990400;28;20461;-91
2023/01/18 05:57:56;;;;;;;4.77;3.30;;;1.20;97.30;;;;;;4974201;28;20905;-91
2023/01/18 06:00:22;;;;;;;1.53;1.43;;;1.20;97.30;;;;;;4990197;28;20181;-90
2023/01/18 06:02:47;;;;;;;1.10;1.00;;;1.20;97.30;;;;;;4990104;28;20200;-91
2023/01/18 06:05:13;;;;;;;1.73;1.63;;;1.20;97.30;;;;;;4989535;28;20189;-91
2023/01/18 06:07:38;;;;;;;1.50;1.40;;;1.10;97.30;;;;;;4988710;28;20562;-90
2023/01/18 06:10:04;;;;;;;1.63;1.33;;;1.10;97.30;;;;;;4989578;28;20201;-90
2023/01/18 06:12:30;;;;;;;1.37;1.27;;;1.10;97.30;;;;;;4989666;28;20198;-90
2023/01/18 06:14:55;;;;;;;1.27;1.17;;;1.10;97.30;;;;;;4975169;28;20486;-91
2023/01/18 06:17:21;;;;;;;1.43;1.33;;;1.10;97.30;;;;;;5002291;28;20213;-94
2023/01/18 06:19:46;;;;;;;1.30;1.20;;;1.10;97.30;;;;;;5014552;28;20166;-94
2023/01/18 06:22:12;;;;;;;2.07;1.93;;;1.00;97.30;;;;;;4997853;28;20453;-91
2023/01/18 06:24:37;;;;;;;1.50;1.40;;;1.00;97.30;;;;;;4988874;28;20189;-91
2023/01/18 06:27:03;;;;;;;1.77;1.67;;;1.00;97.30;;;;;;4992641;28;20652;-90
2023/01/18 06:29:29;;;;;;;1.10;1.00;;;1.00;97.30;;;;;;4992947;28;20264;-91
2023/01/18 06:31:54;;;;;;;1.27;1.20;;;1.00;97.30;;;;;;4993822;28;20216;-90
2023/01/18 06:34:20;;;;;;;1.37;1.27;;;1.00;97.30;;;;;;4992385;28;20174;-91
2023/01/18 06:36:46;;;;;;;5.73;1.97;;;1.10;97.30;;;;;;4993992;28;20205;-90
2023/01/18 06:39:12;;;;;;;4.60;3.17;;;1.10;97.30;;;;;;4992929;28;20209;-90
2023/01/18 06:41:38;;;;;;;2.07;1.93;;;1.10;97.30;;;;;;4977072;28;20225;-91
2023/01/18 06:44:03;;;;;;;1.33;1.23;;;1.10;97.30;;;;;;4976852;28;20245;-90
2023/01/18 06:46:29;;;;;;;2.70;2.17;;;1.10;97.30;;;;;;4977199;28;20459;-90
2023/01/18 06:48:54;;;;;;;5.60;2.80;;;1.10;97.30;;;;;;4978722;28;20178;-90
2023/01/18 06:51:20;;;;;;;1.30;1.20;;;1.10;97.30;;;;;;5009438;28;20276;-89
2023/01/18 06:53:46;;;;;;;1.43;1.33;;;1.20;97.30;;;;;;5009503;28;20277;-90
2023/01/18 06:56:13;;;;;;;1.03;0.93;;;1.20;97.30;;;;;;4976948;28;21091;-91
2023/01/18 06:58:39;;;;;;;1.10;1.00;;;1.20;97.30;;;;;;4976386;28;20261;-90
2023/01/18 07:01:04;;;;;;;2.13;1.47;;;1.20;97.30;;;;;;5009306;28;21117;-91
2023/01/18 07:03:31;;;;;;;1.63;1.53;;;1.20;97.30;;;;;;5008362;28;20443;-90
2023/01/18 07:05:59;;;;;;;3.63;1.27;;;1.20;97.30;;;;;;5009387;28;20190;-91
2023/01/18 07:08:26;;;;;;;2.37;2.17;;;1.30;97.30;;;;;;5009323;28;20421;-90
2023/01/18 07:10:52;;;;;;;1.33;1.30;;;1.30;97.30;;;;;;5008895;28;20516;-90
2023/01/18 07:13:19;;;;;;;2.03;1.90;;;1.20;97.30;;;;;;5008341;28;20543;-90
2023/01/18 07:15:44;;;;;;;4.87;1.97;;;1.20;97.30;;;;;;5007645;28;20838;-90
2023/01/18 07:18:10;;;;;;;1.43;1.33;;;1.20;97.30;;;;;;5008494;28;20419;-89
2023/01/18 07:20:36;;;;;;;1.10;1.00;;;1.20;97.30;;;;;;5008016;28;20353;-93
2023/01/18 07:23:03;;;;;;;1.73;1.63;;;1.20;97.30;;;;;;5008007;28;20200;-91
2023/01/18 07:25:29;;;;;;;1.77;1.67;;;1.20;97.30;;;;;;5008620;28;20783;-90
2023/01/18 07:27:58;;;;;;;1.63;1.53;;;1.20;97.30;;;;;;5009805;28;20427;-90
2023/01/18 07:30:26;;;;;;;1.50;1.37;;;1.20;97.30;;;;;;5008628;28;20181;-91
2023/01/18 07:32:52;;;;;;;2.20;2.00;;;1.20;97.30;;;;;;5008404;28;20500;-90
2023/01/18 07:35:22;;;;;;;1.10;1.00;;;1.20;97.30;;;;;;5000900;28;20428;-92
2023/01/18 07:37:54;;;;;;;2.83;1.67;;;1.20;97.30;;;;;;4974626;28;20520;-90
2023/01/18 07:40:21;;;;;;;2.33;1.80;;;1.10;97.30;;;;;;4976303;28;20429;-90
2023/01/18 07:42:47;;;;;;;1.40;1.30;;;1.10;97.30;;;;;;4991407;28;20437;-91
2023/01/18 07:45:13;;;;;;;1.40;1.37;;;1.10;97.30;;;;;;4988053;28;20461;-91
2023/01/18 07:47:44;;;;;;;1.30;1.20;;;1.10;97.30;;;;;;4971237;28;20438;-88
2023/01/18 07:50:10;;;;;;;1.87;1.77;;;1.10;97.30;;;;;;4988393;28;20179;-89
2023/01/18 07:52:36;;;;;;;8.00;2.80;;;1.10;97.30;;;;;;4972262;28;20441;-89
2023/01/18 07:55:02;;;;;;;2.13;1.97;;;1.10;97.30;;;;;;4972614;28;20482;-89
2023/01/18 07:57:27;;;;;;;1.13;1.03;;;1.00;97.30;;;;;;4973213;28;20219;-89
2023/01/18 07:59:52;;;;;;;2.13;1.97;;;1.00;97.30;;;;;;4979844;28;20228;-88
2023/01/18 08:02:18;;;;;;;1.30;1.20;;;1.00;97.30;;;;;;4988592;28;20283;-89
2023/01/18 08:04:48;;;;;;;1.47;1.37;;;1.00;97.30;;;;;;4971965;28;20542;-88
2023/01/18 08:07:14;;;;;;;1.40;1.30;;;1.00;97.30;;;;;;4988071;28;20225;-88
2023/01/18 08:09:40;;;;;;;1.40;1.30;;;1.00;97.30;;;;;;4988125;28;20417;-89
2023/01/18 08:12:06;;;;;;;1.10;1.00;;;1.00;97.30;;;;;;4977377;28;20458;-90
2023/01/18 08:14:32;;;;;;;2.37;2.17;;;1.00;97.30;;;;;;4951505;28;20183;-89
2023/01/18 08:16:57;;;;;;;1.57;1.47;;;1.00;97.30;;;;;;4950593;29;20471;-89
2023/01/18 08:19:23;;;;;;;4.40;1.50;;;1.00;97.30;;;;;;4970835;28;20230;-90
2023/01/18 08:21:49;;;;;;;1.37;1.27;;;1.00;97.30;;;;;;4986274;28;20183;-89
2023/01/18 08:24:15;;;;;;;3.17;2.97;;;1.00;97.30;;;;;;4985242;28;20496;-89
2023/01/18 08:26:40;;;;;;;1.60;1.50;;;1.00;97.30;;;;;;4985541;28;20270;-89
2023/01/18 08:29:06;;;;;;;1.10;1.00;;;1.00;97.30;;;;;;4970808;28;20440;-90
2023/01/18 08:31:31;;;;;;;1.27;1.20;;;1.00;97.30;;;;;;4986080;28;20182;-88
2023/01/18 08:33:57;;;;;;;1.93;1.83;;;1.00;97.30;;;;;;4986249;28;20288;-87
2023/01/18 08:36:24;;;;;;;1.40;1.30;;;1.00;97.30;;;;;;4986089;28;20206;-90
2023/01/18 08:38:58;;;;;;;1.17;1.07;;;1.00;97.30;;;;;;4972091;28;20171;-88
2023/01/18 08:41:27;;;;;;;1.83;1.73;;;1.00;97.30;;;;;;4987007;28;20928;-87
2023/01/18 08:43:54;;;;;;;2.93;2.00;;;1.00;97.30;;;;;;5006423;23;20517;-85
2023/01/18 08:46:20;;;;;;;1.73;1.63;;;1.00;97.30;;;;;;4982607;28;20916;-85
2023/01/18 08:48:54;;;;;;;2.17;2.00;;;1.00;97.30;;;;;;4982903;28;20412;-84
2023/01/18 08:51:21;;;;;;;1.30;1.20;;;1.00;97.30;;;;;;4983632;28;20425;-83
2023/01/18 08:53:50;;;;;;;1.40;1.30;;;1.00;97.30;;;;;;4981723;28;20445;-88
2023/01/18 08:56:16;;;;;;;2.00;1.73;;;1.00;97.30;;;;;;4972094;28;20548;-88
2023/01/18 08:58:42;;;;;;;1.67;1.57;;;1.00;97.30;;;;;;4971902;28;20777;-86
2023/01/18 09:01:08;;;;;;;1.43;1.33;;;1.00;97.30;;;;;;4972211;28;20422;-87
2023/01/18 09:03:35;;;;;;;1.63;1.50;;;1.10;97.30;;;;;;4988003;28;20225;-86
2023/01/18 09:06:02;;;;;;;1.93;1.83;;;1.10;97.30;;;;;;4973303;28;20526;-86
2023/01/18 09:08:28;;;;;;;4.87;1.50;;;1.10;97.30;;;;;;4972308;28;20425;-87
2023/01/18 09:10:53;;;;;;;1.20;1.10;;;1.10;97.30;;;;;;4972000;28;20426;-87
2023/01/18 09:13:21;;;;;;;1.37;1.27;;;1.10;97.30;;;;;;4963118;28;20210;-87
2023/01/18 09:15:47;;;;;;;1.40;1.30;;;1.10;97.30;;;;;;4980660;28;20234;-87
2023/01/18 09:18:13;;;;;;;1.57;1.47;;;1.10;97.30;;;;;;4967836;28;20429;-87
2023/01/18 09:20:38;;;;;;;1.23;1.13;;;1.10;97.30;;;;;;4979566;28;20666;-87
2023/01/18 09:23:07;;;;;;;1.13;1.03;;;1.10;97.30;;;;;;4968330;28;20434;-87
2023/01/18 09:25:35;;;;;;;2.60;2.40;;;1.10;97.30;;;;;;4969186;28;20178;-86
2023/01/18 09:28:02;;;;;;;1.77;1.67;;;1.10;97.30;;;;;;4982928;28;20438;-86
2023/01/18 09:30:28;;;;;;;2.07;1.93;;;1.10;97.30;;;;;;4977648;28;20426;-90
2023/01/18 09:32:56;;;;;;;1.60;1.50;;;1.10;97.30;;;;;;4987593;28;20468;-89
2023/01/18 09:35:22;;;;;;;1.73;1.67;;;1.20;97.30;;;;;;4984390;28;20423;-90
2023/01/18 09:37:47;;;;;;;2.10;1.63;;;1.20;97.30;;;;;;4970521;28;21338;-87
2023/01/18 09:40:16;;;;;;;1.50;1.40;;;1.20;97.30;;;;;;4982760;28;20502;-88
2023/01/18 09:42:43;;;;;;;1.90;1.80;;;1.20;97.30;;;;;;4969937;28;20253;-87
2023/01/18 09:45:21;;;;;;;3.10;2.83;;;1.20;97.30;;;;;;4987133;28;20435;-87
2023/01/18 09:47:52;;;;;;;1.47;1.37;;;1.20;97.30;;;;;;4993683;28;20408;-86
2023/01/18 09:50:20;;;;;;;1.80;1.43;;;1.30;97.30;;;;;;5009794;28;20782;-88
2023/01/18 09:53:06;;;;;;;4.93;2.40;;;1.30;97.30;;;;;;5001430;28;20869;-86
2023/01/18 09:56:09;;;;;;;2.47;1.90;;;1.30;97.30;;;;;;4991340;28;20432;-86
2023/01/18 09:59:09;;;;;;;1.67;1.57;;;1.30;97.30;;;;;;4997662;28;20424;-86
2023/01/18 10:01:36;;;;;;;1.47;1.37;;;1.30;97.30;;;;;;5011066;28;20458;-88
2023/01/18 10:04:11;;;;;;;1.17;1.07;;;1.40;97.30;;;;;;4988335;28;20828;-85
2023/01/18 10:06:43;;;;;;;1.73;1.60;;;1.40;97.30;;;;;;5000231;28;20442;-87
2023/01/18 10:09:26;;;;;;;1.00;0.90;;;1.40;97.30;;;;;;4991539;28;20425;-87
2023/01/18 10:11:58;;;;;;;1.20;1.17;;;1.40;97.30;;;;;;5000622;28;20514;-86
2023/01/18 10:14:45;;;;;;;1.30;1.20;;;1.40;97.30;;;;;;4990266;28;21165;-86
2023/01/18 10:17:16;;;;;;;1.97;1.73;;;1.40;97.30;;;;;;4998487;28;20471;-85
2023/01/18 10:19:42;;;;;;;1.17;1.07;;;1.40;97.30;;;;;;4994529;28;20942;-86
2023/01/18 10:22:37;;;;;;;1.50;1.40;;;1.50;97.30;;;;;;5013035;28;20426;-86
2023/01/18 10:25:25;;;;;;;3.20;2.30;;;1.50;97.30;;;;;;5011729;28;20425;-87
2023/01/18 10:27:57;;;;;;;1.30;1.20;;;1.50;97.30;;;;;;4996591;28;20428;-87
2023/01/18 10:30:46;;;;;;;1.47;1.37;;;1.50;97.30;;;;;;4997357;28;20422;-86
2023/01/18 10:33:22;;;;;;;1.70;1.60;;;1.60;97.30;;;;;;4991462;28;20814;-88
2023/01/18 10:35:52;;;;;;;11.40;3.27;;;1.60;97.30;;;;;;4983853;28;20455;-88
2023/01/18 10:38:21;;;;;;;1.30;1.20;;;1.60;97.30;;;;;;4995685;28;20793;-87
2023/01/18 10:40:59;;;;;;;2.17;1.77;;;1.60;97.30;;;;;;4994575;28;20478;-86
2023/01/18 10:43:27;;;;;;;1.50;1.40;;;1.60;97.30;;;;;;4997117;28;20471;-86
2023/01/18 10:45:53;;;;;;;1.40;1.30;;;1.60;97.30;;;;;;4997547;28;20424;-87
2023/01/18 10:48:31;;;;;;;4.73;2.10;;;1.60;97.30;;;;;;4993819;28;20559;-86
2023/01/18 10:51:02;;;;;;;7.73;3.10;;;1.60;97.30;;;;;;4979775;28;20435;-85
2023/01/18 10:53:36;;;;;;;2.30;1.70;;;1.60;97.30;;;;;;5002785;28;20490;-87
2023/01/18 10:56:11;;;;;;;2.50;2.23;;;1.60;97.30;;;;;;4991075;28;20453;-88
2023/01/18 10:58:51;;;;;;;4.03;3.03;;;1.60;97.30;;;;;;4994389;28;20424;-84
2023/01/18 11:01:26;;;;;;;1.40;1.30;;;1.60;97.30;;;;;;4988428;28;20492;-86
2023/01/18 11:04:04;;;;;;;1.97;1.87;;;1.60;97.30;;;;;;5012975;28;20436;-86
2023/01/18 11:06:42;;;;;;;3.50;1.50;;;1.60;97.30;;;;;;4996889;28;20426;-87
2023/01/18 11:09:37;;;;;;;1.17;1.07;;;1.60;97.30;;;;;;4996136;28;20419;-87
2023/01/18 11:12:33;;;;;;;1.50;1.40;;;1.60;97.30;;;;;;4996279;28;20782;-87
2023/01/18 11:15:14;;;;;;;2.33;2.13;;;1.60;97.30;;;;;;4994311;28;20546;-87
2023/01/18 11:17:59;;;;;;;17.03;2.17;;;1.50;97.30;;;;;;4993367;28;20484;-88
2023/01/18 11:20:47;;;;;;;1.63;1.47;;;1.50;97.30;;;;;;4978000;28;20429;-87
2023/01/18 11:23:39;;;;;;;6.03;3.00;;;1.50;97.30;;;;;;4993752;28;20485;-87
2023/01/18 11:26:18;;;;;;;1.40;1.30;;;1.50;97.30;;;;;;5007389;28;20515;-87
2023/01/18 11:28:56;;;;;;;1.77;1.67;;;1.50;97.30;;;;;;5012261;28;20412;-89
2023/01/18 11:31:24;;;;;;;1.40;1.30;;;1.50;97.30;;;;;;5010563;28;20427;-86
2023/01/18 11:33:56;;;;;;;1.60;1.50;;;1.50;97.30;;;;;;4995129;28;20444;-87
2023/01/18 11:36:39;;;;;;;1.77;1.70;;;1.50;97.30;;;;;;4976148;28;20448;-87
2023/01/18 11:39:26;;;;;;;2.30;2.07;;;1.50;97.30;;;;;;4976968;28;20472;-87
2023/01/18 11:42:09;;;;;;;1.77;1.67;;;1.50;97.30;;;;;;4999742;28;20795;-87
2023/01/18 11:44:38;;;;;;;1.80;1.67;;;1.50;97.30;;;;;;4995335;28;20475;-87
2023/01/18 11:47:11;;;;;;;1.73;1.40;;;1.50;97.30;;;;;;5012920;28;20827;-86
2023/01/18 11:50:03;;;;;;;1.67;1.57;;;1.50;97.30;;;;;;4994040;28;20426;-88
2023/01/18 11:52:50;;;;;;;1.50;1.40;;;1.50;97.30;;;;;;4987962;28;20974;-88
2023/01/18 11:55:30;;;;;;;1.57;1.53;;;1.50;97.30;;;;;;4995252;28;20450;-87
2023/01/18 11:57:57;;;;;;;1.53;1.43;;;1.50;97.30;;;;;;4994927;28;20427;-88
2023/01/18 12:00:27;;;;;;;4.20;2.13;;;1.50;97.30;;;;;;5012548;28;20507;-87
2023/01/18 12:03:23;;;;;;;1.53;1.27;;;1.50;97.30;;;;;;4982078;28;20469;-86
2023/01/18 12:05:56;;;;;;;6.57;2.97;;;1.40;97.30;;;;;;4994700;28;20783;-87
2023/01/18 12:08:57;;;;;;;1.60;1.50;;;1.40;97.30;;;;;;4994396;28;20446;-87
2023/01/18 12:11:41;;;;;;;1.20;1.10;;;1.40;97.30;;;;;;4975450;28;20443;-87
2023/01/18 12:14:32;;;;;;;3.63;3.23;;;1.40;97.30;;;;;;4986882;28;20483;-89
2023/01/18 12:17:23;;;;;;;1.20;1.10;;;1.50;97.30;;;;;;4993555;28;20479;-88
2023/01/18 12:19:59;;;;;;;1.63;1.53;;;1.60;97.30;;;;;;5011068;28;20424;-88
2023/01/18 12:22:52;;;;;;;1.20;1.10;;;1.60;97.30;;;;;;5001587;28;20431;-87
2023/01/18 12:25:38;;;;;;;1.10;1.00;;;1.70;97.30;;;;;;4980680;28;20429;-86
2023/01/18 12:28:21;;;;;;;1.10;1.00;;;1.70;97.30;;;;;;4977745;28;20920;-87
2023/01/18 12:31:24;;;;;;;2.07;1.93;;;1.80;97.30;;;;;;4995337;28;20419;-87
2023/01/18 12:34:16;;;;;;;4.17;1.80;;;1.80;97.30;;;;;;4977813;28;20436;-86
2023/01/18 12:36:54;;;;;;;3.40;1.53;;;1.80;97.30;;;;;;4977657;28;20503;-87
2023/01/18 12:39:42;;;;;;;0.97;0.87;;;1.80;97.30;;;;;;4989322;28;20432;-85
2023/01/18 12:42:20;;;;;;;14.60;2.40;;;1.80;97.30;;;;;;5015220;28;20454;-87
2023/01/18 12:45:11;;;;;;;2.63;1.87;;;1.80;97.30;;;;;;5010403;28;20443;-90
2023/01/18 12:47:39;;;;;;;1.47;1.40;;;1.80;97.30;;;;;;4998672;28;20452;-92
2023/01/18 12:50:15;;;;;;;1.77;1.67;;;1.80;97.30;;;;;;4998006;28;20425;-91
2023/01/18 12:52:47;;;;;;;1.77;1.77;;;1.90;97.30;;;;;;4998868;28;20480;-91
2023/01/18 12:55:20;;;;;;;1.50;1.40;;;1.90;97.30;;;;;;4999214;28;20448;-91
2023/01/18 12:57:57;;;;;;;1.93;1.83;;;1.90;97.30;;;;;;5015540;28;20481;-92
2023/01/18 13:00:39;;;;;;;2.07;1.93;;;1.90;97.30;;;;;;5014460;28;20442;-90
2023/01/18 13:03:15;;;;;;;2.20;1.50;;;1.90;97.30;;;;;;5017269;28;20424;-90
2023/01/18 13:05:52;;;;;;;5.70;2.33;;;1.90;97.30;;;;;;5014515;28;20444;-90
2023/01/18 13:08:30;;;;;;;1.50;1.40;;;1.90;97.30;;;;;;4996701;28;20444;-88
2023/01/18 13:11:06;;;;;;;2.27;2.07;;;1.90;97.30;;;;;;4994540;28;20433;-86
2023/01/18 13:13:33;;;;;;;1.63;1.53;;;1.90;97.30;;;;;;4977799;28;20502;-87
2023/01/18 13:16:14;;;;;;;1.47;1.37;;;1.90;97.30;;;;;;4994203;28;20464;-89
2023/01/18 13:19:05;;;;;;;2.37;2.17;;;2.00;97.30;;;;;;4993279;28;20498;-88
2023/01/18 13:21:51;;;;;;;3.10;2.90;;;2.00;97.30;;;;;;4993523;28;20428;-87
2023/01/18 13:24:39;;;;;;;3.53;2.27;;;2.00;97.30;;;;;;4993186;28;20444;-87
2023/01/18 13:27:10;;;;;;;2.20;1.40;;;2.10;97.30;;;;;;4993808;28;20431;-86
2023/01/18 13:29:36;;;;;;;2.30;1.63;;;2.20;97.30;;;;;;5005958;28;20440;-89
2023/01/18 13:32:19;;;;;;;9.93;2.03;;;2.20;97.30;;;;;;5013332;28;20423;-90
2023/01/18 13:34:47;;;;;;;1.60;1.50;;;2.20;97.30;;;;;;5000678;28;20423;-87
2023/01/18 13:37:52;;;;;;;4.00;2.63;;;2.20;97.30;;;;;;4989394;28;20460;-88
2023/01/18 13:40:35;;;;;;;1.60;1.50;;;2.20;97.30;;;;;;4989273;28;20468;-86
2023/01/18 13:43:00;;;;;;;1.53;1.43;;;2.20;97.30;;;;;;4993026;28;20472;-87
2023/01/18 13:45:28;;;;;;;3.53;2.53;;;2.20;97.30;;;;;;4993049;28;20423;-86
2023/01/18 13:47:59;;;;;;;2.33;2.13;;;2.20;97.30;;;;;;4992033;28;20176;-85
2023/01/18 13:50:27;;;;;;;1.97;1.83;;;2.20;97.30;;;;;;4992445;28;20455;-86